Time;durP1;ratioP1;P1;durP2;ratioP2;P2;SDS_P1;SDS_P2;PMS_P1;PMS_P2;Temp;Humidity;BMP_temperature;BMP_pressure;BME280_temperature;BME280_humidity;BME280_pressure;Samples;Min_cycle;Max_cycle;Signal;HPM_P1;HPM_P2
2020/12/27 00:02:31;;;;;;;116.30;40.83;;;;;;;-2.16;71.64;99288.84;2175261;81;21083;-75
2020/12/27 00:05:34;;;;;;;103.77;40.67;;;;;;;-2.20;71.74;99280.46;2175154;81;21400;-76
2020/12/27 00:08:35;;;;;;;97.50;39.33;;;;;;;-2.22;71.84;99273.08;2174923;82;21106;-75
2020/12/27 00:11:38;;;;;;;97.80;39.90;;;;;;;-2.27;71.90;99266.37;2175567;81;21122;-76
2020/12/27 00:14:39;;;;;;;87.70;36.93;;;;;;;-2.28;71.98;99263.70;2175883;81;21102;-76
2020/12/27 00:17:43;;;;;;;91.20;39.03;;;;;;;-2.30;72.04;99265.27;2175335;81;21244;-76
2020/12/27 00:20:44;;;;;;;81.10;34.60;;;;;;;-2.34;72.08;99261.62;2173575;82;21170;-75
2020/12/27 00:23:45;;;;;;;85.77;34.77;;;;;;;-2.36;72.17;99254.63;2175289;82;21184;-76
2020/12/27 00:26:46;;;;;;;105.57;40.40;;;;;;;-2.41;72.29;99252.14;2175250;81;21204;-77
2020/12/27 00:29:47;;;;;;;89.60;39.60;;;;;;;-2.42;72.38;99247.81;2175130;82;21087;-76
2020/12/27 00:32:48;;;;;;;84.10;38.30;;;;;;;-2.41;72.39;99248.31;2175414;82;21114;-77
2020/12/27 00:35:49;;;;;;;87.57;36.10;;;;;;;-2.41;72.41;99247.92;2175388;82;21118;-76
2020/12/27 00:38:50;;;;;;;86.97;36.60;;;;;;;-2.42;72.46;99243.98;2175260;82;21138;-76
2020/12/27 00:41:54;;;;;;;88.57;38.63;;;;;;;-2.44;72.47;99248.10;2175253;82;21183;-76
2020/12/27 00:44:56;;;;;;;91.20;36.50;;;;;;;-2.46;72.41;99242.00;2175297;81;21404;-77
2020/12/27 00:47:57;;;;;;;106.57;38.90;;;;;;;-2.46;72.52;99248.39;2180722;81;21174;-76
2020/12/27 00:50:58;;;;;;;96.30;36.80;;;;;;;-2.46;72.50;99247.11;2175672;82;21417;-77
2020/12/27 00:53:59;;;;;;;91.90;36.87;;;;;;;-2.45;72.61;99236.98;2175558;82;21090;-76
2020/12/27 00:57:00;;;;;;;80.33;33.10;;;;;;;-2.46;72.44;99230.49;2175746;82;21131;-77
2020/12/27 01:00:01;;;;;;;103.57;38.10;;;;;;;-2.46;72.43;99238.16;2175486;82;21126;-77
2020/12/27 01:03:02;;;;;;;89.30;37.20;;;;;;;-2.47;72.42;99230.00;2175393;82;21118;-76
2020/12/27 01:06:03;;;;;;;87.30;34.67;;;;;;;-2.49;72.33;99226.05;2175468;82;21122;-76
2020/12/27 01:09:04;;;;;;;73.37;32.17;;;;;;;-2.52;72.29;99222.02;2175364;82;21090;-77
2020/12/27 01:12:05;;;;;;;92.10;36.93;;;;;;;-2.57;72.31;99220.42;2175573;82;21121;-77
2020/12/27 01:15:07;;;;;;;85.73;34.07;;;;;;;-2.58;72.46;99214.81;2175497;82;21153;-77
2020/12/27 01:18:09;;;;;;;73.30;30.77;;;;;;;-2.55;72.47;99213.25;2175779;82;21145;-76
2020/12/27 01:21:10;;;;;;;86.73;32.90;;;;;;;-2.57;72.44;99216.59;2175545;82;21432;-77
2020/12/27 01:24:11;;;;;;;106.30;37.87;;;;;;;-2.59;72.33;99209.20;2175595;82;21121;-77
2020/12/27 01:27:12;;;;;;;92.93;33.90;;;;;;;-2.63;72.26;99188.02;2175579;82;21475;-76
2020/12/27 01:30:13;;;;;;;70.03;29.63;;;;;;;-2.66;72.17;99195.48;2175573;82;21380;-76
2020/12/27 01:33:14;;;;;;;69.37;29.17;;;;;;;-2.70;72.17;99189.66;2175373;82;21114;-76
2020/12/27 01:36:15;;;;;;;72.30;28.63;;;;;;;-2.73;72.13;99179.63;2175759;82;21087;-76
2020/12/27 01:39:16;;;;;;;88.33;30.40;;;;;;;-2.76;72.19;99176.86;2175435;82;21134;-76
2020/12/27 01:42:18;;;;;;;63.00;28.03;;;;;;;-2.78;72.26;99175.86;2175698;82;21124;-76
2020/12/27 01:45:20;;;;;;;61.30;24.47;;;;;;;-2.80;72.21;99169.76;2175493;82;21118;-77
2020/12/27 01:48:22;;;;;;;59.47;24.27;;;;;;;-2.80;72.16;99181.26;2158733;81;21282;-77
2020/12/27 01:51:23;;;;;;;40.50;20.87;;;;;;;-2.82;72.09;99182.42;2149604;83;21237;-76
2020/12/27 01:54:24;;;;;;;49.03;22.40;;;;;;;-2.84;72.01;99185.66;2149453;83;21238;-77
2020/12/27 01:57:25;;;;;;;48.90;23.17;;;;;;;-2.87;72.00;99179.95;2151967;83;21110;-76
2020/12/27 02:00:26;;;;;;;53.80;23.87;;;;;;;-2.86;71.95;99174.05;2152398;82;21183;-76
2020/12/27 02:03:27;;;;;;;48.97;22.40;;;;;;;-2.86;71.86;99174.05;2151844;82;21388;-76
2020/12/27 02:06:29;;;;;;;54.03;22.87;;;;;;;-2.89;71.75;99177.28;2151768;83;21111;-76
2020/12/27 02:09:30;;;;;;;57.33;23.90;;;;;;;-2.90;71.73;99170.41;2152018;83;21127;-76
2020/12/27 02:12:31;;;;;;;43.03;18.90;;;;;;;-2.90;71.65;99173.34;2151970;82;21135;-76
2020/12/27 02:15:32;;;;;;;41.20;19.87;;;;;;;-2.90;71.58;99164.02;2151898;82;21432;-76
2020/12/27 02:18:33;;;;;;;43.07;21.10;;;;;;;-2.93;71.44;99160.36;2152222;82;21422;-76
2020/12/27 02:21:34;;;;;;;41.60;18.73;;;;;;;-2.95;71.43;99150.04;2152152;82;21155;-77
2020/12/27 02:24:35;;;;;;;39.80;18.50;;;;;;;-2.95;71.41;99148.77;2151838;82;21185;-76
2020/12/27 02:27:36;;;;;;;37.03;18.93;;;;;;;-2.95;71.27;99133.83;2151734;82;21184;-77
2020/12/27 02:30:38;;;;;;;34.33;17.50;;;;;;;-2.96;71.30;99134.22;2151956;83;21142;-76
2020/12/27 02:33:39;;;;;;;32.63;16.93;;;;;;;-2.96;71.19;99133.33;2152093;82;21393;-76
2020/12/27 02:36:40;;;;;;;39.00;18.03;;;;;;;-2.98;71.08;99122.13;2151973;83;21401;-76
2020/12/27 02:39:41;;;;;;;32.73;16.17;;;;;;;-2.98;71.06;99122.13;2151782;82;21167;-76
2020/12/27 02:42:42;;;;;;;38.53;16.03;;;;;;;-2.98;70.98;99125.95;2151765;83;21254;-77
2020/12/27 02:45:43;;;;;;;34.90;17.10;;;;;;;-3.01;70.92;99116.42;2152129;82;21158;-76
2020/12/27 02:48:44;;;;;;;33.87;15.80;;;;;;;-3.04;70.93;99099.61;2158396;82;21110;-76
2020/12/27 02:51:45;;;;;;;27.93;14.00;;;;;;;-3.02;70.97;99098.44;2161529;82;21072;-77
2020/12/27 02:54:46;;;;;;;33.97;16.50;;;;;;;-3.06;70.81;99088.79;2161275;82;21345;-78
2020/12/27 02:57:48;;;;;;;30.63;15.37;;;;;;;-3.06;74.46;99082.41;2161280;82;21115;-78
2020/12/27 03:00:49;;;;;;;30.67;15.57;;;;;;;1.62;90.37;99058.77;2161400;82;21424;-77
2020/12/27 03:03:50;;;;;;;31.03;17.43;;;;;;;1.16;79.28;99059.00;2161407;82;21110;-77
2020/12/27 03:06:51;;;;;;;34.93;16.83;;;;;;;-0.05;70.08;99063.45;2161434;82;21384;-76
2020/12/27 03:09:52;;;;;;;35.27;17.77;;;;;;;-0.94;68.89;99066.72;2161486;82;21135;-76
2020/12/27 03:12:55;;;;;;;30.70;17.60;;;;;;;-1.52;69.19;99061.49;2161517;82;21115;-76
2020/12/27 03:15:56;;;;;;;34.47;17.90;;;;;;;-1.96;69.50;99064.66;2161740;82;21253;-77
2020/12/27 03:18:57;;;;;;;34.00;17.50;;;;;;;-2.27;69.79;99060.92;2161514;82;21114;-76
2020/12/27 03:22:00;;;;;;;38.77;19.00;;;;;;;-2.48;70.31;99058.23;2161529;82;21170;-76
2020/12/27 03:25:01;;;;;;;35.37;17.90;;;;;;;-2.62;70.55;99055.63;2161429;82;21114;-76
2020/12/27 03:28:02;;;;;;;39.83;18.80;;;;;;;-2.73;70.71;99051.86;2161495;82;21115;-76
2020/12/27 03:31:03;;;;;;;39.40;18.83;;;;;;;-2.87;70.91;99053.50;2161571;82;21122;-76
2020/12/27 03:34:04;;;;;;;43.43;20.90;;;;;;;-2.93;71.19;99051.41;2161469;82;21135;-76
2020/12/27 03:37:08;;;;;;;44.93;21.00;;;;;;;-2.99;71.33;99043.73;2161394;82;21119;-76
2020/12/27 03:40:09;;;;;;;45.03;20.10;;;;;;;-3.04;71.45;99043.42;2161415;82;21186;-76
2020/12/27 03:43:10;;;;;;;36.13;18.60;;;;;;;-3.09;71.56;99033.67;2161532;82;21150;-76
2020/12/27 03:46:12;;;;;;;41.33;19.40;;;;;;;-3.12;71.69;99034.36;2161520;82;21150;-76
2020/12/27 03:49:13;;;;;;;40.90;20.37;;;;;;;-3.16;71.72;99027.27;2181482;81;21438;-76
2020/12/27 03:52:14;;;;;;;40.17;18.23;;;;;;;-3.18;71.85;99027.55;2188741;81;21105;-76
2020/12/27 03:55:15;;;;;;;43.03;19.97;;;;;;;-3.19;71.90;99030.89;2178442;81;21396;-76
2020/12/27 03:58:16;;;;;;;43.90;21.10;;;;;;;-3.26;71.95;99019.77;2175397;82;21117;-79
2020/12/27 04:01:20;;;;;;;44.83;21.70;;;;;;;-3.26;72.14;99021.05;2175890;82;21185;-77
2020/12/27 04:04:21;;;;;;;49.03;22.43;;;;;;;-3.27;72.30;99020.55;2175655;82;21134;-77
2020/12/27 04:07:22;;;;;;;43.80;21.47;;;;;;;-3.30;72.37;99018.67;2175479;82;21385;-76
2020/12/27 04:10:23;;;;;;;42.83;20.40;;;;;;;-3.32;72.45;99017.69;2175415;82;21130;-76
2020/12/27 04:13:24;;;;;;;43.07;21.27;;;;;;;-3.32;72.61;99010.41;2175729;82;21384;-76
2020/12/27 04:16:25;;;;;;;50.47;21.97;;;;;;;-3.36;72.43;99001.66;2175445;82;21448;-76
2020/12/27 04:19:26;;;;;;;48.13;21.40;;;;;;;-3.35;72.56;99000.00;2175625;82;21086;-76
2020/12/27 04:22:28;;;;;;;44.90;20.57;;;;;;;-3.37;72.58;98992.23;2175649;82;21087;-76
2020/12/27 04:25:30;;;;;;;42.67;21.17;;;;;;;-3.33;72.48;98998.44;2175423;82;21134;-78
2020/12/27 04:28:31;;;;;;;45.30;22.27;;;;;;;-3.34;72.58;98997.94;2175495;82;21143;-76
2020/12/27 04:31:32;;;;;;;39.50;19.67;;;;;;;-3.35;72.54;98996.17;2175486;82;21126;-77
2020/12/27 04:34:33;;;;;;;43.50;19.67;;;;;;;-3.35;72.53;98989.40;2175568;82;21122;-78
2020/12/27 04:37:34;;;;;;;40.70;20.70;;;;;;;-3.37;72.49;98976.92;2175491;82;21118;-76
2020/12/27 04:40:35;;;;;;;38.90;19.00;;;;;;;-3.39;72.52;98967.39;2175980;82;21172;-76
2020/12/27 04:43:36;;;;;;;36.80;18.23;;;;;;;-3.39;72.61;98969.55;2175471;82;21437;-76
2020/12/27 04:46:38;;;;;;;35.63;18.27;;;;;;;-3.38;72.54;98970.05;2175592;82;21118;-76
2020/12/27 04:49:39;;;;;;;37.13;18.47;;;;;;;-3.38;72.60;98958.56;2175332;81;21158;-76
2020/12/27 04:52:40;;;;;;;30.73;16.17;;;;;;;-3.38;72.58;98954.73;2175070;82;21396;-77
2020/12/27 04:55:44;;;;;;;38.20;16.90;;;;;;;-3.39;72.48;98949.13;2175219;82;21142;-76
2020/12/27 04:58:45;;;;;;;33.80;16.30;;;;;;;-3.38;72.46;98944.52;2175135;82;21110;-77
2020/12/27 05:01:46;;;;;;;32.37;16.13;;;;;;;-3.39;72.46;98945.30;2175135;82;21158;-76
2020/12/27 05:04:47;;;;;;;31.63;16.77;;;;;;;-3.39;72.49;98949.52;2175085;82;21091;-77
2020/12/27 05:07:48;;;;;;;28.43;15.43;;;;;;;-3.38;72.52;98945.80;2175242;82;21114;-77
2020/12/27 05:10:49;;;;;;;32.63;16.53;;;;;;;-3.39;72.45;98935.09;2175200;82;21130;-76
2020/12/27 05:13:51;;;;;;;32.13;15.93;;;;;;;-3.40;72.41;98930.77;2175458;82;21118;-78
2020/12/27 05:16:52;;;;;;;32.73;16.03;;;;;;;-3.40;72.46;98933.33;2175240;82;21130;-77
2020/12/27 05:19:56;;;;;;;31.80;16.37;;;;;;;-3.40;72.42;98926.06;2175113;82;21166;-76
2020/12/27 05:22:57;;;;;;;27.27;15.43;;;;;;;-3.41;72.49;98918.80;2175173;82;21114;-76
2020/12/27 05:25:58;;;;;;;30.50;15.03;;;;;;;-3.41;72.44;98911.14;2175219;82;21110;-76
2020/12/27 05:28:59;;;;;;;30.10;16.67;;;;;;;-3.41;72.44;98918.80;2175238;82;21142;-76
2020/12/27 05:32:00;;;;;;;27.80;14.23;;;;;;;-3.41;72.46;98914.97;2175432;82;21141;-76
2020/12/27 05:35:02;;;;;;;31.00;15.70;;;;;;;-3.43;72.46;98907.98;2175293;82;21262;-76
2020/12/27 05:38:03;;;;;;;32.57;17.57;;;;;;;-3.44;72.44;98915.16;2175073;82;21408;-76
2020/12/27 05:41:04;;;;;;;37.60;17.77;;;;;;;-3.48;72.40;98905.09;2175069;82;21158;-77
2020/12/27 05:44:05;;;;;;;38.00;18.37;;;;;;;-3.52;72.47;98905.28;2175096;82;21122;-77
2020/12/27 05:47:12;;;;;;;34.80;16.10;;;;;;;-3.54;72.45;98904.69;2175175;82;21118;-78
2020/12/27 05:50:14;;;;;;;45.40;20.23;;;;;;;-3.54;72.72;98904.69;2174963;81;21173;-77
2020/12/27 05:53:15;;;;;;;47.83;23.40;;;;;;;-3.50;72.63;98909.21;2175145;82;21090;-77
2020/12/27 05:56:19;;;;;;;43.03;20.30;;;;;;;-3.50;72.53;98909.60;2175244;82;21550;-77
2020/12/27 05:59:20;;;;;;;49.20;19.10;;;;;;;-3.53;72.58;98917.94;2175428;82;21395;-77
2020/12/27 06:02:21;;;;;;;42.83;19.70;;;;;;;-3.52;72.58;98912.94;2174981;82;21335;-77
2020/12/27 06:05:25;;;;;;;41.40;18.53;;;;;;;-3.52;72.65;98916.77;2175212;82;21122;-76
2020/12/27 06:08:27;;;;;;;36.68;17.00;;;;;;;-3.49;72.63;98919.03;2175303;82;21392;-76
2020/12/27 06:11:30;;;;;;;37.23;18.27;;;;;;;-3.48;72.38;98918.25;2175216;82;21168;-76
2020/12/27 06:14:31;;;;;;;44.27;20.57;;;;;;;-3.51;72.44;98916.38;2174980;82;21252;-75
2020/12/27 06:17:32;;;;;;;28.93;15.67;;;;;;;-3.53;72.38;98910.28;2175378;82;21090;-75
2020/12/27 06:20:33;;;;;;;32.97;16.53;;;;;;;-3.53;72.38;98907.73;2175263;82;21166;-77
2020/12/27 06:23:37;;;;;;;36.23;16.77;;;;;;;-3.57;72.42;98914.69;2175206;82;21114;-76
2020/12/27 06:26:38;;;;;;;37.80;18.63;;;;;;;-3.61;72.46;98916.14;2174649;82;21122;-77
2020/12/27 06:29:39;;;;;;;35.37;17.90;;;;;;;-3.64;72.51;98912.50;2175093;82;21118;-76
2020/12/27 06:32:40;;;;;;;37.27;17.53;;;;;;;-3.66;72.63;98908.95;2175029;82;21130;-76
2020/12/27 06:35:41;;;;;;;35.90;19.33;;;;;;;-3.66;72.71;98919.16;2174920;82;21228;-77
2020/12/27 06:38:43;;;;;;;37.47;18.10;;;;;;;-3.67;72.88;98909.73;2175107;82;21117;-77
2020/12/27 06:41:44;;;;;;;41.80;20.30;;;;;;;-3.67;72.71;98911.02;2175046;82;21772;-76
2020/12/27 06:44:45;;;;;;;40.03;19.53;;;;;;;-3.67;72.98;98913.56;2174941;82;21126;-75
2020/12/27 06:47:46;;;;;;;33.10;17.30;;;;;;;-3.66;72.93;98918.77;2174633;81;21162;-76
2020/12/27 06:50:47;;;;;;;37.70;17.60;;;;;;;-3.64;72.92;98920.16;2161888;82;21091;-76
2020/12/27 06:53:48;;;;;;;39.63;17.93;;;;;;;-3.67;72.97;98915.73;2162175;82;21118;-76
2020/12/27 06:56:53;;;;;;;40.23;18.57;;;;;;;-3.68;73.01;98912.68;2162328;82;21090;-76
2020/12/27 06:59:52;;;;;;;38.10;19.30;;;;;;;-3.68;73.15;98918.17;2161752;82;21253;-75
2020/12/27 07:02:56;;;;;;;41.80;19.87;;;;;;;-3.67;73.13;98906.80;2151776;83;21119;-76
2020/12/27 07:05:57;;;;;;;36.93;18.03;;;;;;;-3.61;73.16;98915.26;2152102;82;21115;-75
2020/12/27 07:09:00;;;;;;;38.00;18.57;;;;;;;-3.56;73.19;98915.17;2151600;83;21122;-76
2020/12/27 07:12:04;;;;;;;40.87;19.77;;;;;;;-3.54;73.08;98913.61;2151464;83;21115;-77
2020/12/27 07:15:05;;;;;;;36.03;18.43;;;;;;;-3.51;73.12;98911.27;2151915;83;21111;-76
2020/12/27 07:18:06;;;;;;;39.13;18.87;;;;;;;-3.49;73.10;98911.37;2151349;83;21076;-77
2020/12/27 07:21:07;;;;;;;37.33;17.13;;;;;;;-3.43;73.08;98901.22;2151858;83;21167;-78
2020/12/27 07:24:08;;;;;;;42.27;19.27;;;;;;;-3.37;73.02;98897.80;2152033;82;21425;-76
2020/12/27 07:27:09;;;;;;;32.10;16.80;;;;;;;-3.32;72.92;98898.10;2151839;83;21119;-76
2020/12/27 07:30:10;;;;;;;37.77;19.03;;;;;;;-3.26;72.92;98899.39;2151936;83;21405;-76
2020/12/27 07:33:12;;;;;;;48.13;25.53;;;;;;;-3.20;72.80;98900.19;2151798;83;21123;-76
2020/12/27 07:36:13;;;;;;;36.77;19.03;;;;;;;-3.10;72.67;98898.73;2151606;83;21146;-77
2020/12/27 07:39:14;;;;;;;34.97;18.00;;;;;;;-3.04;72.37;98888.92;2151620;83;21155;-78
2020/12/27 07:42:15;;;;;;;39.37;18.20;;;;;;;-2.97;72.33;98882.14;2151510;83;21166;-77
2020/12/27 07:45:16;;;;;;;34.93;18.03;;;;;;;-2.90;72.22;98880.87;2151816;83;21092;-76
2020/12/27 07:48:17;;;;;;;32.57;15.10;;;;;;;-2.81;72.09;98878.02;2153969;79;21135;-77
2020/12/27 07:51:18;;;;;;;35.40;17.63;;;;;;;-2.70;71.77;98871.93;2168233;82;21129;-77
2020/12/27 07:54:22;;;;;;;32.07;15.27;;;;;;;-2.65;71.69;98862.49;2173882;81;21130;-78
2020/12/27 07:57:23;;;;;;;33.30;18.47;;;;;;;-2.60;71.45;98856.42;2175591;82;21098;-77
2020/12/27 08:00:24;;;;;;;37.87;18.50;;;;;;;-2.53;71.47;98853.47;2175574;82;21436;-77
2020/12/27 08:03:25;;;;;;;38.03;18.00;;;;;;;-2.43;71.24;98852.37;2175602;82;21090;-77
2020/12/27 08:06:28;;;;;;;33.00;18.50;;;;;;;-2.39;71.00;98846.66;2175779;82;21086;-77
2020/12/27 08:09:29;;;;;;;33.67;16.93;;;;;;;-2.34;70.99;98836.32;2175411;82;21154;-77
2020/12/27 08:12:30;;;;;;;35.57;17.87;;;;;;;-2.29;70.75;98822.15;2175671;82;21133;-77
2020/12/27 08:15:31;;;;;;;32.80;17.00;;;;;;;-2.24;70.58;98819.48;2175595;82;21416;-77
2020/12/27 08:18:35;;;;;;;40.73;20.53;;;;;;;-2.19;70.57;98810.41;2175455;82;21126;-77
2020/12/27 08:21:36;;;;;;;35.00;17.87;;;;;;;-2.11;70.47;98805.36;2175537;82;21436;-77
2020/12/27 08:24:37;;;;;;;32.27;17.47;;;;;;;-2.02;70.26;98800.80;2175874;82;21193;-77
2020/12/27 08:27:38;;;;;;;34.47;18.03;;;;;;;-1.88;70.15;98805.46;2175512;82;21119;-77
2020/12/27 08:30:39;;;;;;;34.17;17.63;;;;;;;-1.74;69.90;98793.08;2175538;82;21146;-76
2020/12/27 08:33:41;;;;;;;35.97;18.70;;;;;;;-1.66;69.45;98776.53;2175374;82;21106;-77
2020/12/27 08:36:42;;;;;;;35.23;18.30;;;;;;;-1.55;69.39;98774.98;2175182;82;21372;-76
2020/12/27 08:39:43;;;;;;;36.47;17.90;;;;;;;-1.43;69.14;98771.85;2175168;82;21134;-77
2020/12/27 08:42:45;;;;;;;47.03;23.03;;;;;;;-1.30;68.61;98771.76;2175425;82;21126;-76
2020/12/27 08:45:46;;;;;;;42.20;20.37;;;;;;;-1.21;68.54;98768.83;2175592;82;21411;-77
2020/12/27 08:48:47;;;;;;;34.80;18.07;;;;;;;-1.10;68.36;98773.77;2171902;81;21179;-76
2020/12/27 08:51:51;;;;;;;30.53;16.37;;;;;;;-1.02;67.64;98762.66;2151547;83;21139;-78
2020/12/27 08:54:52;;;;;;;30.10;15.10;;;;;;;-0.93;67.67;98751.63;2151726;82;21123;-77
2020/12/27 08:57:53;;;;;;;34.83;17.37;;;;;;;-0.82;67.23;98754.42;2151839;82;21397;-77
2020/12/27 09:00:54;;;;;;;40.63;18.97;;;;;;;-0.74;67.32;98754.44;2151472;83;21166;-76
2020/12/27 09:03:55;;;;;;;47.60;22.20;;;;;;;-0.66;67.00;98748.44;2152048;82;21123;-77
2020/12/27 09:06:58;;;;;;;35.77;17.73;;;;;;;-0.59;66.81;98739.00;2151756;82;21131;-77
2020/12/27 09:10:00;;;;;;;41.23;19.23;;;;;;;-0.49;66.47;98739.97;2151883;83;21393;-78
2020/12/27 09:13:01;;;;;;;39.20;17.17;;;;;;;-0.40;66.41;98739.57;2151928;82;21119;-76
2020/12/27 09:16:02;;;;;;;35.47;17.60;;;;;;;-0.34;65.69;98733.08;2152092;82;21123;-77
2020/12/27 09:19:06;;;;;;;39.60;18.57;;;;;;;-0.29;65.97;98733.33;2152151;82;21409;-78
2020/12/27 09:22:08;;;;;;;30.23;16.23;;;;;;;-0.18;65.96;98730.91;2151997;83;21158;-77
2020/12/27 09:25:09;;;;;;;33.73;17.93;;;;;;;-0.13;65.04;98717.92;2152090;82;21123;-77
2020/12/27 09:28:10;;;;;;;35.03;17.47;;;;;;;-0.11;65.16;98708.62;2152329;83;21412;-76
2020/12/27 09:31:11;;;;;;;28.83;16.27;;;;;;;0.02;65.07;98693.88;2151842;82;21115;-77
2020/12/27 09:34:13;;;;;;;31.53;16.13;;;;;;;0.08;64.90;98689.05;2151987;82;21426;-77
2020/12/27 09:37:14;;;;;;;28.67;15.30;;;;;;;0.13;64.81;98690.16;2152104;82;21122;-78
2020/12/27 09:40:15;;;;;;;37.23;19.33;;;;;;;0.25;64.28;98685.64;2151669;82;21179;-76
2020/12/27 09:43:17;;;;;;;37.03;18.07;;;;;;;0.30;63.60;98675.19;2152177;82;21127;-77
2020/12/27 09:46:21;;;;;;;28.70;15.97;;;;;;;0.40;63.71;98667.13;2151941;83;21119;-77
2020/12/27 09:49:22;;;;;;;28.50;15.10;;;;;;;0.52;63.68;98662.98;2157910;81;21174;-76
2020/12/27 09:52:23;;;;;;;29.33;13.87;;;;;;;0.54;63.29;98665.23;2175367;82;21102;-76
2020/12/27 09:55:24;;;;;;;26.23;14.50;;;;;;;0.58;63.15;98658.14;2175555;82;21074;-77
2020/12/27 09:58:25;;;;;;;29.57;13.97;;;;;;;0.60;62.93;98663.83;2175354;82;21126;-77
2020/12/27 10:01:27;;;;;;;25.03;12.83;;;;;;;0.61;63.01;98656.60;2174871;82;21443;-77
2020/12/27 10:04:28;;;;;;;24.47;13.50;;;;;;;0.66;61.59;98656.82;2175470;82;21118;-77
2020/12/27 10:07:29;;;;;;;25.80;13.97;;;;;;;0.64;62.10;98659.31;2175404;82;21133;-77
2020/12/27 10:10:32;;;;;;;24.73;13.53;;;;;;;0.68;62.76;98651.35;2175300;82;21420;-76
2020/12/27 10:13:33;;;;;;;26.30;14.57;;;;;;;0.80;61.56;98640.77;2175429;82;21115;-79
2020/12/27 10:16:34;;;;;;;30.27;14.40;;;;;;;0.83;62.27;98637.06;2175429;82;21142;-76
2020/12/27 10:19:35;;;;;;;27.73;15.03;;;;;;;0.87;61.76;98632.57;2174823;82;21130;-77
2020/12/27 10:22:36;;;;;;;30.77;14.90;;;;;;;0.89;61.40;98622.83;2175504;82;21166;-77
2020/12/27 10:25:37;;;;;;;22.07;12.37;;;;;;;0.89;61.22;98631.83;2174983;82;21122;-76
2020/12/27 10:28:38;;;;;;;25.17;13.03;;;;;;;0.93;61.15;98627.71;2175433;82;21118;-77
2020/12/27 10:31:39;;;;;;;24.97;14.30;;;;;;;0.91;60.28;98612.63;2175565;82;21122;-77
2020/12/27 10:34:40;;;;;;;25.80;14.43;;;;;;;0.90;61.18;98600.18;2175479;82;21360;-76
2020/12/27 10:37:44;;;;;;;26.00;14.00;;;;;;;0.97;61.37;98576.92;2175422;82;21145;-77
2020/12/27 10:40:45;;;;;;;24.97;14.40;;;;;;;1.05;61.63;98575.98;2175301;82;21182;-77
2020/12/27 10:43:49;;;;;;;25.60;13.77;;;;;;;1.13;60.17;98564.34;2175792;82;21145;-77
2020/12/27 10:46:50;;;;;;;32.00;17.42;;;;;;;1.15;60.93;98557.58;2175426;82;21082;-77
2020/12/27 10:49:51;;;;;;;29.17;14.80;;;;;;;1.20;61.01;98540.66;2170932;81;21150;-77
2020/12/27 10:52:53;;;;;;;26.27;15.00;;;;;;;1.27;61.20;98539.71;2155632;82;21424;-77
2020/12/27 10:55:54;;;;;;;25.23;14.07;;;;;;;1.29;60.29;98533.34;2151535;83;21126;-77
2020/12/27 10:58:55;;;;;;;23.57;13.90;;;;;;;1.28;60.35;98526.45;2151960;82;21111;-79
2020/12/27 11:01:57;;;;;;;23.13;13.40;;;;;;;1.33;60.91;98509.93;2152096;82;21182;-77
2020/12/27 11:04:58;;;;;;;23.70;14.63;;;;;;;1.42;60.87;98493.19;2151852;83;21424;-77
2020/12/27 11:07:59;;;;;;;22.47;13.10;;;;;;;1.39;60.08;98478.04;2152015;82;21123;-77
2020/12/27 11:11:00;;;;;;;26.93;13.57;;;;;;;1.32;60.02;98477.31;2151513;83;21119;-78
2020/12/27 11:14:02;;;;;;;23.43;13.53;;;;;;;1.32;60.53;98469.60;2151752;82;21376;-77
2020/12/27 11:17:03;;;;;;;92.47;42.87;;;;;;;1.37;60.64;98468.98;2151376;82;21126;-76
2020/12/27 11:20:04;;;;;;;31.87;16.70;;;;;;;1.40;60.61;98463.08;2151110;82;21385;-78
2020/12/27 11:23:05;;;;;;;28.63;15.40;;;;;;;1.43;60.89;98460.63;2151651;82;21146;-77
2020/12/27 11:26:06;;;;;;;23.27;14.37;;;;;;;1.46;60.43;98448.78;2151654;83;21119;-77
2020/12/27 11:29:07;;;;;;;30.70;14.40;;;;;;;1.52;60.70;98441.31;2151815;83;21412;-77
2020/12/27 11:32:08;;;;;;;28.30;13.93;;;;;;;1.56;60.39;98437.17;2152089;83;21135;-77
2020/12/27 11:35:12;;;;;;;29.13;14.97;;;;;;;1.54;60.59;98440.97;2151719;83;21500;-76
2020/12/27 11:38:13;;;;;;;29.67;15.17;;;;;;;1.57;60.59;98424.78;2152151;83;21112;-77
2020/12/27 11:41:14;;;;;;;26.97;14.87;;;;;;;1.57;60.36;98419.63;2151764;83;21166;-77
2020/12/27 11:44:19;;;;;;;21.67;13.03;;;;;;;1.54;60.27;98410.51;2152068;82;21127;-77
2020/12/27 11:47:20;;;;;;;27.80;15.58;;;;;;;1.54;60.43;98415.66;2152226;83;21119;-78
2020/12/27 11:50:21;;;;;;;28.33;15.17;;;;;;;1.47;60.19;98407.22;2152527;82;21151;-78
2020/12/27 11:53:22;;;;;;;26.73;14.93;;;;;;;1.45;60.62;98389.56;2175235;81;21138;-77
2020/12/27 11:56:26;;;;;;;28.77;15.57;;;;;;;1.46;60.69;98390.91;2175254;81;21122;-77
2020/12/27 11:59:27;;;;;;;24.43;14.80;;;;;;;1.44;60.71;98385.23;2174266;82;21152;-77
2020/12/27 12:02:28;;;;;;;28.47;15.10;;;;;;;1.39;60.22;98386.75;2175447;81;21161;-78
2020/12/27 12:05:29;;;;;;;26.23;13.97;;;;;;;1.29;60.24;98388.06;2175835;81;21117;-78
2020/12/27 12:08:32;;;;;;;27.17;14.87;;;;;;;1.28;60.97;98383.33;2175323;82;21138;-77
2020/12/27 12:11:33;;;;;;;43.00;23.27;;;;;;;1.30;60.91;98375.68;2174445;82;21134;-80
2020/12/27 12:14:34;;;;;;;30.73;17.30;;;;;;;1.71;76.80;98367.44;2175566;82;21233;-79
2020/12/27 12:17:36;;;;;;;30.53;17.63;;;;;;;5.62;78.58;98344.94;2175195;82;21138;-79
2020/12/27 12:20:43;;;;;;;31.77;17.47;;;;;;;9.20;72.04;98331.89;2175376;82;21122;-80
2020/12/27 12:23:44;;;;;;;39.63;25.43;;;;;;;11.43;66.23;98327.40;2175464;82;21359;-79
2020/12/27 12:26:45;;;;;;;124.63;74.03;;;;;;;12.67;57.61;98305.34;2175117;82;21106;-79
2020/12/27 12:29:46;;;;;;;78.87;51.83;;;;;;;14.06;47.47;98298.23;2175675;81;21145;-78
2020/12/27 12:32:50;;;;;;;72.30;45.50;;;;;;;12.73;44.26;98288.30;2175354;82;21114;-79
2020/12/27 12:35:51;;;;;;;60.80;40.43;;;;;;;11.52;43.96;98284.70;2174506;82;21396;-79
2020/12/27 12:38:52;;;;;;;70.50;44.97;;;;;;;10.70;46.32;98292.88;2175361;82;21114;-78
2020/12/27 12:41:53;;;;;;;48.93;32.60;;;;;;;10.35;47.64;98285.34;2174945;82;21166;-78
2020/12/27 12:44:54;;;;;;;45.33;30.27;;;;;;;10.04;47.57;98289.52;2175540;81;21146;-77
2020/12/27 12:47:57;;;;;;;29.67;19.17;;;;;;;10.09;46.39;98282.16;2175270;82;21114;-80
2020/12/27 12:50:58;;;;;;;34.50;21.87;;;;;;;10.23;43.63;98276.16;2174543;81;21165;-77
2020/12/27 12:53:59;;;;;;;34.83;18.87;;;;;;;9.70;46.81;98265.00;2175441;81;21399;-79
2020/12/27 12:57:03;;;;;;;32.17;20.07;;;;;;;9.19;44.38;98246.81;2175242;82;21142;-78
2020/12/27 13:00:04;;;;;;;27.33;17.07;;;;;;;8.67;46.71;98251.96;2175853;82;21344;-78
2020/12/27 13:03:05;;;;;;;24.57;16.50;;;;;;;8.60;46.05;98241.92;2175424;82;21086;-79
2020/12/27 13:06:06;;;;;;;27.33;15.50;;;;;;;8.80;48.31;98239.55;2175403;82;21122;-79
2020/12/27 13:09:07;;;;;;;27.00;17.20;;;;;;;9.23;47.28;98253.80;2175537;81;21082;-78
2020/12/27 13:12:10;;;;;;;27.47;16.37;;;;;;;9.34;47.01;98253.88;2174880;81;21153;-78
2020/12/27 13:15:12;;;;;;;23.70;16.17;;;;;;;9.78;46.46;98256.36;2175964;81;21098;-79
2020/12/27 13:18:14;;;;;;;27.93;15.53;;;;;;;9.91;44.91;98229.92;2175763;81;21119;-78
2020/12/27 13:21:16;;;;;;;23.70;15.67;;;;;;;9.64;44.71;98205.91;2174629;82;21175;-78
2020/12/27 13:24:17;;;;;;;22.17;14.27;;;;;;;8.94;44.35;98189.78;2175487;81;21126;-78
2020/12/27 13:27:18;;;;;;;22.90;14.60;;;;;;;8.38;45.99;98173.22;2175424;82;21131;-79
2020/12/27 13:30:20;;;;;;;23.60;13.90;;;;;;;8.41;45.74;98145.94;2175746;81;21074;-81
2020/12/27 13:33:23;;;;;;;20.90;15.17;;;;;;;7.99;44.25;98138.12;2175433;81;21408;-77
2020/12/27 13:36:24;;;;;;;26.60;14.87;;;;;;;6.88;43.84;98136.63;2175144;81;21134;-79
2020/12/27 13:39:25;;;;;;;22.33;13.97;;;;;;;5.39;45.24;98133.87;2174518;82;21176;-78
2020/12/27 13:42:26;;;;;;;23.40;13.67;;;;;;;4.16;47.41;98116.33;2174765;81;21158;-77
2020/12/27 13:45:28;;;;;;;25.03;13.47;;;;;;;3.37;49.22;98111.58;2175119;82;21384;-77
2020/12/27 13:48:30;;;;;;;26.07;15.53;;;;;;;2.80;50.83;98134.83;2175105;81;21118;-78
2020/12/27 13:51:31;;;;;;;23.60;13.43;;;;;;;2.28;52.39;98121.96;2174951;81;21166;-79
2020/12/27 13:54:32;;;;;;;23.47;13.90;;;;;;;1.84;53.62;98115.80;2175259;81;21392;-77
2020/12/27 13:57:33;;;;;;;21.97;14.87;;;;;;;1.55;54.30;98131.88;2175066;82;21232;-77